Time;durP1;ratioP1;P1;durP2;ratioP2;P2;SDS_P1;SDS_P2;PMS_P1;PMS_P2;Temp;Humidity;BMP_temperature;BMP_pressure;BME280_temperature;BME280_humidity;BME280_pressure;Samples;Min_cycle;Max_cycle;Signal;HPM_P1;HPM_P2
2023/08/19 00:08:04;;;;;;;5.38;2.80;;;28.60;31.40;;;;;;20916386;28;20045;-57
2023/08/19 00:18:04;;;;;;;9.50;7.25;;;28.40;31.90;;;;;;20915934;28;20037;-56
2023/08/19 00:28:05;;;;;;;3.67;2.67;;;28.40;32.20;;;;;;20913679;28;20064;-57
2023/08/19 00:38:06;;;;;;;;;;;28.40;32.40;;;;;;20915053;28;20087;-56
2023/08/19 00:48:07;;;;;;;5.10;2.90;;;28.40;32.40;;;;;;20913972;28;19947;-56
2023/08/19 00:58:08;;;;;;;8.85;7.50;;;28.40;32.70;;;;;;20912229;28;20060;-56
2023/08/19 01:08:11;;;;;;;;;;;28.30;33.30;;;;;;20913461;28;20040;-56
2023/08/19 01:18:13;;;;;;;4.72;2.60;;;28.10;33.50;;;;;;20922897;28;19968;-56
2023/08/19 01:28:14;;;;;;;3.80;2.70;;;28.10;33.80;;;;;;20927546;28;20111;-56
2023/08/19 01:38:18;;;;;;;;;;;28.10;33.80;;;;;;20929001;28;20049;-56
2023/08/19 01:48:19;;;;;;;5.88;2.92;;;28.10;33.90;;;;;;20927989;28;19973;-56
2023/08/19 01:58:19;;;;;;;;;;;27.90;34.00;;;;;;20927127;28;20131;-57
2023/08/19 02:08:20;;;;;;;6.63;2.85;;;27.90;34.40;;;;;;20926012;28;19928;-55
2023/08/19 02:18:22;;;;;;;2.97;2.33;;;27.80;34.70;;;;;;20925562;28;20044;-57
2023/08/19 02:28:23;;;;;;;7.45;3.10;;;27.70;34.90;;;;;;20923356;28;20100;-56
2023/08/19 02:38:23;;;;;;;20.67;6.80;;;27.60;34.40;;;;;;20923982;28;20045;-56
2023/08/19 02:48:25;;;;;;;8.10;6.07;;;27.40;34.70;;;;;;20921785;28;20048;-56
2023/08/19 02:58:28;;;;;;;7.87;3.17;;;27.10;35.90;;;;;;20922114;28;20041;-56
2023/08/19 03:08:28;;;;;;;3.95;3.08;;;27.00;36.50;;;;;;20921106;28;20052;-56
2023/08/19 03:18:29;;;;;;;4.50;2.73;;;26.80;36.80;;;;;;20920574;28;20045;-56
2023/08/19 03:28:30;;;;;;;6.03;2.97;;;26.70;37.00;;;;;;20919153;28;20375;-55
2023/08/19 03:38:31;;;;;;;6.43;2.87;;;26.30;37.30;;;;;;20917160;28;20060;-55
2023/08/19 03:48:31;;;;;;;4.03;2.50;;;26.10;37.10;;;;;;20918638;28;20505;-56
2023/08/19 03:58:32;;;;;;;4.63;2.37;;;25.90;36.30;;;;;;20916761;28;20041;-56
2023/08/19 04:08:33;;;;;;;6.93;2.40;;;25.70;35.70;;;;;;20915386;28;20125;-54
2023/08/19 04:18:35;;;;;;;4.50;2.47;;;25.40;35.60;;;;;;20916399;28;20509;-55
2023/08/19 04:28:36;;;;;;;;;;;25.10;35.60;;;;;;20916079;28;20061;-55
2023/08/19 04:38:36;;;;;;;3.47;2.17;;;24.90;35.70;;;;;;20914862;28;19921;-55
2023/08/19 04:48:37;;;;;;;7.73;5.00;;;24.80;36.30;;;;;;20913180;28;20055;-55
2023/08/19 04:58:38;;;;;;;3.47;2.47;;;24.80;36.30;;;;;;20913810;28;20128;-56
2023/08/19 05:08:39;;;;;;;4.50;2.57;;;24.90;36.20;;;;;;20912985;28;20049;-56
2023/08/19 05:18:39;;;;;;;6.20;2.53;;;24.70;36.70;;;;;;20912736;28;20045;-57
2023/08/19 05:28:40;;;;;;;5.43;2.53;;;24.70;37.00;;;;;;20911219;28;20076;-55
2023/08/19 05:38:41;;;;;;;4.90;2.40;;;25.00;36.70;;;;;;20911097;28;20084;-56
2023/08/19 05:48:42;;;;;;;6.20;3.47;;;25.10;36.20;;;;;;20912107;28;20084;-56
2023/08/19 05:58:42;;;;;;;9.07;3.67;;;25.30;36.00;;;;;;20911893;28;20114;-56
2023/08/19 06:08:43;;;;;;;6.27;2.83;;;25.40;36.80;;;;;;20924394;28;20076;-56
2023/08/19 06:18:44;;;;;;;6.93;3.60;;;25.50;34.70;;;;;;20924269;28;20125;-56
2023/08/19 06:28:45;;;;;;;10.00;3.47;;;25.50;33.80;;;;;;20924135;28;20060;-57
2023/08/19 06:38:51;;;;;;;10.33;3.17;;;25.60;33.30;;;;;;20922415;28;20045;-56
2023/08/19 06:48:53;;;;;;;4.28;2.85;;;25.70;32.60;;;;;;20922764;28;20051;-55
2023/08/19 06:59:01;;;;;;;;;;;26.00;31.10;;;;;;20921210;28;20049;-56
2023/08/19 07:09:05;;;;;;;7.82;3.75;;;26.10;31.20;;;;;;20920772;28;19921;-56
2023/08/19 07:19:13;;;;;;;7.57;4.18;;;26.30;31.60;;;;;;20918293;28;20049;-56
2023/08/19 07:29:14;;;;;;;5.78;3.00;;;26.80;30.90;;;;;;20918847;28;20154;-56
2023/08/19 07:39:15;;;;;;;8.65;3.40;;;27.20;31.30;;;;;;20918349;28;20053;-57
2023/08/19 07:49:16;;;;;;;8.23;3.08;;;27.60;31.40;;;;;;20917815;28;20095;-56
2023/08/19 07:59:16;;;;;;;8.70;3.27;;;28.00;31.20;;;;;;20917210;28;20049;-55
2023/08/19 08:09:18;;;;;;;12.13;4.00;;;28.30;31.30;;;;;;20916438;28;20506;-56
2023/08/19 08:19:22;;;;;;;8.07;3.13;;;28.60;31.10;;;;;;20915296;28;20052;-57
2023/08/19 08:29:24;;;;;;;5.15;3.20;;;28.70;31.00;;;;;;20912733;28;20103;-56
2023/08/19 08:39:24;;;;;;;6.18;2.95;;;28.90;30.90;;;;;;20912770;28;20037;-56
2023/08/19 08:49:27;;;;;;;6.35;3.33;;;29.10;30.50;;;;;;20912415;28;20051;-57
2023/08/19 08:59:28;;;;;;;6.65;2.97;;;29.40;30.10;;;;;;20912717;28;20052;-56
2023/08/19 09:09:33;;;;;;;7.53;3.25;;;29.50;30.30;;;;;;20913016;28;20491;-56
2023/08/19 09:19:35;;;;;;;6.70;3.40;;;29.70;29.60;;;;;;20912511;28;20068;-56
2023/08/19 09:29:36;;;;;;;9.95;3.88;;;30.10;29.20;;;;;;20912299;28;20052;-57
2023/08/19 09:39:36;;;;;;;9.02;4.00;;;30.10;29.10;;;;;;20922480;28;20052;-56
2023/08/19 09:49:37;;;;;;;4.55;2.78;;;30.20;29.70;;;;;;20928292;28;20041;-56
2023/08/19 09:59:38;;;;;;;6.75;3.25;;;30.50;29.50;;;;;;20926659;28;20056;-58
2023/08/19 10:09:40;;;;;;;8.00;2.55;;;30.60;29.90;;;;;;20926052;28;20077;-57
2023/08/19 10:19:53;;;;;;;7.82;3.70;;;30.70;30.30;;;;;;20923412;28;20045;-56
2023/08/19 10:29:57;;;;;;;5.75;2.85;;;30.80;30.50;;;;;;20923344;28;20507;-56
2023/08/19 10:40:11;;;;;;;8.80;4.30;;;31.00;30.50;;;;;;20923526;28;20091;-55
2023/08/19 10:50:12;;;;;;;8.98;3.88;;;31.10;30.50;;;;;;20921398;28;20045;-56
2023/08/19 11:00:14;;;;;;;7.20;3.35;;;31.40;30.50;;;;;;20921338;28;20083;-55
2023/08/19 11:10:15;;;;;;;4.25;3.45;;;31.70;30.80;;;;;;20919495;28;20056;-57
2023/08/19 11:20:16;;;;;;;6.72;3.38;;;31.90;30.90;;;;;;20920107;28;20041;-56
2023/08/19 11:30:18;;;;;;;7.35;4.53;;;32.10;30.90;;;;;;20918995;28;20127;-56
2023/08/19 11:40:19;;;;;;;2.53;2.17;;;32.30;30.40;;;;;;20918655;28;20500;-56
2023/08/19 11:50:20;;;;;;;3.92;2.47;;;32.30;30.30;;;;;;20918000;28;20041;-57
2023/08/19 12:00:24;;;;;;;7.00;4.90;;;32.80;29.50;;;;;;20916625;28;20045;-57
2023/08/19 12:10:40;;;;;;;3.58;2.15;;;33.00;27.60;;;;;;20914886;28;20120;-56
2023/08/19 12:20:41;;;;;;;3.85;2.92;;;33.30;27.30;;;;;;20914919;28;20049;-57
2023/08/19 12:30:42;;;;;;;5.30;2.00;;;33.40;27.00;;;;;;20915423;28;20087;-56
2023/08/19 12:40:43;;;;;;;3.50;1.85;;;33.40;26.50;;;;;;20912815;28;20040;-56
2023/08/19 12:50:44;;;;;;;6.05;2.90;;;33.40;27.70;;;;;;20913617;28;20049;-56
2023/08/19 13:00:45;;;;;;;4.63;3.13;;;33.50;27.40;;;;;;20912820;28;20056;-56
2023/08/19 13:10:46;;;;;;;5.95;2.55;;;33.80;26.20;;;;;;20912200;28;20405;-56
2023/08/19 13:20:47;;;;;;;4.65;1.98;;;34.00;25.90;;;;;;20911600;28;20143;-56
2023/08/19 13:30:48;;;;;;;3.90;2.05;;;34.20;25.20;;;;;;20912649;28;20065;-55
2023/08/19 13:40:48;;;;;;;7.55;3.05;;;34.30;25.20;;;;;;20910635;28;20139;-57
2023/08/19 13:50:49;;;;;;;4.37;1.40;;;34.30;25.00;;;;;;20910613;28;20482;-56
2023/08/19 14:00:50;;;;;;;3.53;1.75;;;34.70;23.60;;;;;;20909564;28;20797;-56
2023/08/19 14:10:52;;;;;;;3.50;1.70;;;34.80;23.10;;;;;;20908330;28;20405;-56
2023/08/19 14:20:53;;;;;;;4.57;1.58;;;35.00;23.30;;;;;;20913998;28;20097;-56
2023/08/19 14:30:54;;;;;;;3.20;1.73;;;34.90;22.90;;;;;;20923198;28;20053;-55
2023/08/19 14:40:54;;;;;;;4.00;1.73;;;35.30;22.70;;;;;;20923888;28;20157;-56
2023/08/19 14:50:55;;;;;;;13.52;12.18;;;35.10;22.10;;;;;;20923027;28;20037;-56
2023/08/19 15:00:56;;;;;;;4.00;1.45;;;35.10;21.50;;;;;;20921122;28;20099;-55
2023/08/19 15:10:56;;;;;;;7.33;2.17;;;35.30;21.10;;;;;;20920493;28;20534;-57
2023/08/19 15:20:57;;;;;;;4.85;1.50;;;35.40;20.90;;;;;;20920880;28;20298;-56
2023/08/19 15:30:58;;;;;;;5.40;2.50;;;35.30;21.10;;;;;;20918852;28;20049;-56
2023/08/19 15:40:59;;;;;;;3.75;1.90;;;35.50;21.40;;;;;;20919767;28;20049;-56
2023/08/19 15:50:59;;;;;;;5.00;1.90;;;35.50;21.50;;;;;;20918715;28;20099;-56
2023/08/19 16:01:00;;;;;;;3.00;1.80;;;35.50;21.20;;;;;;20917931;28;20052;-56
2023/08/19 16:11:04;;;;;;;4.22;1.73;;;35.40;20.70;;;;;;20917168;28;20037;-56
2023/08/19 16:21:04;;;;;;;5.15;2.45;;;35.60;21.30;;;;;;20914883;28;20040;-56
2023/08/19 16:31:05;;;;;;;6.18;2.30;;;35.50;21.80;;;;;;20915178;28;20106;-55
2023/08/19 16:41:08;;;;;;;5.93;1.80;;;35.40;21.60;;;;;;20913588;28;20076;-55
2023/08/19 16:51:08;;;;;;;6.03;2.10;;;35.40;21.70;;;;;;20913789;28;20167;-57
2023/08/19 17:01:10;;;;;;;4.43;2.13;;;35.40;21.50;;;;;;20913433;28;20045;-56
2023/08/19 17:11:11;;;;;;;3.55;1.60;;;35.20;21.80;;;;;;20912272;28;20049;-58
2023/08/19 17:21:12;;;;;;;4.53;2.95;;;35.20;21.70;;;;;;20910803;28;20045;-57
2023/08/19 17:31:13;;;;;;;4.90;1.90;;;35.10;22.00;;;;;;20910872;28;20486;-57
2023/08/19 17:41:13;;;;;;;4.40;2.30;;;35.00;21.50;;;;;;20911836;28;20850;-57
2023/08/19 17:51:14;;;;;;;5.50;3.58;;;34.90;21.60;;;;;;20910298;28;20048;-56
2023/08/19 18:01:15;;;;;;;6.72;4.03;;;34.80;21.50;;;;;;20923451;28;20041;-57
2023/08/19 18:11:16;;;;;;;5.15;2.80;;;34.60;22.00;;;;;;20928481;28;20076;-58
2023/08/19 18:21:16;;;;;;;4.15;2.10;;;34.60;22.40;;;;;;20924546;28;20095;-57
2023/08/19 18:31:17;;;;;;;6.18;2.13;;;34.40;22.30;;;;;;20924200;28;20049;-57
2023/08/19 18:41:18;;;;;;;9.02;3.63;;;34.20;22.70;;;;;;20924481;28;20080;-56
2023/08/19 18:51:19;;;;;;;4.45;2.28;;;34.00;22.40;;;;;;20923844;28;20095;-56
2023/08/19 19:01:19;;;;;;;7.05;2.15;;;33.80;22.60;;;;;;20922613;28;20080;-56
2023/08/19 19:11:20;;;;;;;6.85;2.35;;;33.60;22.80;;;;;;20920792;28;20066;-56
2023/08/19 19:21:21;;;;;;;8.55;2.50;;;33.40;22.70;;;;;;20921081;28;20067;-57
2023/08/19 19:31:22;;;;;;;7.40;2.70;;;33.30;22.90;;;;;;20919699;28;20053;-56
2023/08/19 19:41:22;;;;;;;7.53;3.70;;;33.10;23.10;;;;;;20919183;28;20045;-56
2023/08/19 19:51:23;;;;;;;7.10;4.30;;;33.00;23.10;;;;;;20917936;28;20378;-56
2023/08/19 20:01:24;;;;;;;10.32;4.43;;;32.90;23.20;;;;;;20916242;28;20045;-56
2023/08/19 20:11:25;;;;;;;7.70;3.15;;;32.80;23.10;;;;;;20915841;28;20048;-57
2023/08/19 20:21:25;;;;;;;5.45;2.83;;;32.60;23.10;;;;;;20915087;28;20118;-56
2023/08/19 20:31:26;;;;;;;4.33;2.57;;;32.50;23.10;;;;;;20914605;28;20049;-56
2023/08/19 20:41:27;;;;;;;5.15;2.40;;;32.40;23.40;;;;;;20913121;28;20636;-56
2023/08/19 20:51:28;;;;;;;6.95;3.05;;;32.20;23.70;;;;;;20913705;28;20568;-56
2023/08/19 21:01:30;;;;;;;9.20;4.90;;;32.10;24.30;;;;;;20911165;28;20048;-57
2023/08/19 21:11:31;;;;;;;8.38;2.55;;;31.90;24.60;;;;;;20911566;28;20133;-57
2023/08/19 21:21:32;;;;;;;7.10;2.40;;;31.80;25.00;;;;;;20911184;28;20493;-58
2023/08/19 21:31:33;;;;;;;10.07;2.70;;;31.60;25.20;;;;;;20917039;28;20471;-56
2023/08/19 21:41:33;;;;;;;9.98;3.05;;;31.40;25.30;;;;;;20928180;28;20045;-57
2023/08/19 21:51:34;;;;;;;10.52;3.95;;;31.20;25.70;;;;;;20927672;28;20060;-57
2023/08/19 22:01:35;;;;;;;6.45;2.95;;;31.10;26.00;;;;;;20926952;28;20048;-57
2023/08/19 22:11:36;;;;;;;8.80;3.15;;;31.00;26.30;;;;;;20924744;28;20048;-56
2023/08/19 22:21:37;;;;;;;4.53;2.30;;;30.70;26.70;;;;;;20925704;28;20047;-57
2023/08/19 22:31:37;;;;;;;5.20;2.20;;;30.60;27.10;;;;;;20923685;28;20489;-57
2023/08/19 22:41:38;;;;;;;4.90;2.50;;;30.60;26.90;;;;;;20924173;28;20045;-57
2023/08/19 22:51:39;;;;;;;6.93;3.60;;;30.60;27.10;;;;;;20923666;28;20084;-56
2023/08/19 23:01:39;;;;;;;5.50;2.72;;;30.60;27.30;;;;;;20922545;28;20117;-57
2023/08/19 23:11:40;;;;;;;8.50;3.50;;;30.60;27.60;;;;;;20920827;28;20098;-56
2023/08/19 23:21:41;;;;;;;6.47;3.22;;;30.60;27.80;;;;;;20921184;28;20098;-57
2023/08/19 23:31:42;;;;;;;6.00;2.53;;;30.40;27.90;;;;;;20919495;28;20451;-57
2023/08/19 23:41:43;;;;;;;7.25;2.60;;;30.30;28.10;;;;;;20919534;28;20052;-56
2023/08/19 23:51:45;;;;;;;5.30;3.08;;;30.20;28.40;;;;;;20916764;28;20477;-55
